createdAt,value
2018-06-19T00:00:06.914Z,1010.46
2018-06-19T00:00:47.435Z,1010.45
2018-06-19T00:01:27.956Z,1010.45
2018-06-19T00:02:08.495Z,1010.48
2018-06-19T00:02:49.010Z,1010.5
2018-06-19T00:03:29.524Z,1010.53
2018-06-19T00:04:10.036Z,1010.53
2018-06-19T00:04:50.568Z,1010.5
2018-06-19T00:05:31.098Z,1010.52
2018-06-19T00:06:11.613Z,1010.51
2018-06-19T00:06:52.177Z,1010.52
2018-06-19T00:07:32.674Z,1010.48
2018-06-19T00:08:13.202Z,1010.48
2018-06-19T00:08:53.720Z,1010.46
2018-06-19T00:09:34.236Z,1010.46
2018-06-19T00:10:14.755Z,1010.44
2018-06-19T00:10:55.295Z,1010.45
2018-06-19T00:11:35.813Z,1010.52
2018-06-19T00:12:16.360Z,1010.54
2018-06-19T00:12:56.862Z,1010.57
2018-06-19T00:13:37.399Z,1010.52
2018-06-19T00:14:17.923Z,1010.56
2018-06-19T00:14:58.445Z,1010.5
2018-06-19T00:15:38.972Z,1010.55
2018-06-19T00:16:19.487Z,1010.57
2018-06-19T00:17:00.021Z,1010.52
2018-06-19T00:17:40.529Z,1010.54
2018-06-19T00:18:21.079Z,1010.54
2018-06-19T00:19:01.586Z,1010.55
2018-06-19T00:19:42.106Z,1010.54
2018-06-19T00:20:22.672Z,1010.52
2018-06-19T00:21:03.189Z,1010.56
2018-06-19T00:21:43.727Z,1010.57
2018-06-19T00:22:24.260Z,1010.6
2018-06-19T00:23:04.800Z,1010.59
2018-06-19T00:23:45.333Z,1010.59
2018-06-19T00:24:25.839Z,1010.6
2018-06-19T00:25:06.358Z,1010.58
2018-06-19T00:25:46.891Z,1010.63
2018-06-19T00:26:27.423Z,1010.59
2018-06-19T00:27:07.957Z,1010.63
2018-06-19T00:27:48.475Z,1010.58
2018-06-19T00:28:28.997Z,1010.61
2018-06-19T00:29:09.512Z,1010.65
2018-06-19T00:29:50.044Z,1010.62
2018-06-19T00:30:30.563Z,1010.64
2018-06-19T00:31:11.107Z,1010.66
2018-06-19T00:31:51.603Z,1010.65
2018-06-19T00:32:32.129Z,1010.65
2018-06-19T00:33:12.647Z,1010.64
2018-06-19T00:33:53.162Z,1010.64
2018-06-19T00:34:33.668Z,1010.65
2018-06-19T00:35:14.189Z,1010.67
2018-06-19T00:35:54.710Z,1010.67
2018-06-19T00:36:35.223Z,1010.62
2018-06-19T00:37:15.755Z,1010.67
2018-06-19T00:37:56.275Z,1010.63
2018-06-19T00:38:36.790Z,1010.69
2018-06-19T00:39:17.327Z,1010.67
2018-06-19T00:39:57.838Z,1010.66
2018-06-19T00:40:38.360Z,1010.74
2018-06-19T00:41:18.896Z,1010.7
2018-06-19T00:41:59.421Z,1010.7
2018-06-19T00:42:39.976Z,1010.65
2018-06-19T00:43:20.471Z,1010.73
2018-06-19T00:44:00.982Z,1010.68
2018-06-19T00:44:41.506Z,1010.67
2018-06-19T00:45:22.025Z,1010.66
2018-06-19T00:46:02.550Z,1010.64
2018-06-19T00:46:43.064Z,1010.63
2018-06-19T00:47:23.608Z,1010.67
2018-06-19T00:48:04.127Z,1010.69
2018-06-19T00:48:44.644Z,1010.68
2018-06-19T00:49:25.184Z,1010.68
2018-06-19T00:50:05.701Z,1010.67
2018-06-19T00:50:46.233Z,1010.67
2018-06-19T00:51:26.743Z,1010.68
2018-06-19T00:52:07.265Z,1010.7
2018-06-19T00:52:47.774Z,1010.71
2018-06-19T00:53:28.328Z,1010.7
2018-06-19T00:54:08.860Z,1010.72
2018-06-19T00:54:49.385Z,1010.73
2018-06-19T00:55:29.905Z,1010.77
2018-06-19T00:56:10.428Z,1010.77
2018-06-19T00:56:50.946Z,1010.68
2018-06-19T00:57:31.468Z,1010.69
2018-06-19T00:58:11.982Z,1010.69
2018-06-19T00:58:52.505Z,1010.69
2018-06-19T00:59:33.024Z,1010.7
2018-06-19T01:00:13.551Z,1010.7
2018-06-19T01:00:54.071Z,1010.7
2018-06-19T01:01:34.590Z,1010.73
2018-06-19T01:02:15.095Z,1010.74
2018-06-19T01:02:55.621Z,1010.68
2018-06-19T01:03:36.135Z,1010.67
2018-06-19T01:04:16.653Z,1010.67
2018-06-19T01:04:57.172Z,1010.61
2018-06-19T01:05:37.693Z,1010.67
2018-06-19T01:06:18.240Z,1010.66
2018-06-19T01:06:58.775Z,1010.65
2018-06-19T01:07:39.302Z,1010.65
2018-06-19T01:08:19.827Z,1010.66
2018-06-19T01:09:00.348Z,1010.66
2018-06-19T01:09:40.880Z,1010.64
2018-06-19T01:10:21.391Z,1010.63
2018-06-19T01:11:01.904Z,1010.67
2018-06-19T01:11:42.436Z,1010.66
2018-06-19T01:12:22.968Z,1010.66
2018-06-19T01:13:03.482Z,1010.64
2018-06-19T01:13:44.007Z,1010.65
2018-06-19T01:14:24.526Z,1010.66
2018-06-19T01:15:05.055Z,1010.67
2018-06-19T01:15:45.575Z,1010.68
2018-06-19T01:16:26.095Z,1010.7
2018-06-19T01:17:06.621Z,1010.68
2018-06-19T01:17:47.143Z,1010.72
2018-06-19T01:18:27.654Z,1010.68
2018-06-19T01:19:08.178Z,1010.7
2018-06-19T01:19:48.689Z,1010.79
2018-06-19T01:20:29.203Z,1010.73
2018-06-19T01:21:09.730Z,1010.7
2018-06-19T01:21:50.264Z,1010.73
2018-06-19T01:22:30.776Z,1010.72
2018-06-19T01:23:11.300Z,1010.74
2018-06-19T01:23:51.832Z,1010.72
2018-06-19T01:24:32.354Z,1010.7
2018-06-19T01:25:12.873Z,1010.76
2018-06-19T01:25:53.402Z,1010.71
2018-06-19T01:26:33.930Z,1010.75
2018-06-19T01:27:14.453Z,1010.76
2018-06-19T01:27:54.971Z,1010.78
2018-06-19T01:28:35.555Z,1010.8
2018-06-19T01:29:16.024Z,1010.82
2018-06-19T01:29:56.540Z,1010.78
2018-06-19T01:30:37.055Z,1010.79
2018-06-19T01:31:17.576Z,1010.77
2018-06-19T01:31:58.093Z,1010.73
2018-06-19T01:32:38.626Z,1010.76
2018-06-19T01:33:19.141Z,1010.75
2018-06-19T01:33:59.664Z,1010.8
2018-06-19T01:34:40.199Z,1010.74
2018-06-19T01:35:20.724Z,1010.73
2018-06-19T01:36:01.265Z,1010.7
2018-06-19T01:36:41.783Z,1010.75
2018-06-19T01:37:22.296Z,1010.75
2018-06-19T01:38:02.877Z,1010.76
2018-06-19T01:38:43.335Z,1010.74
2018-06-19T01:39:23.857Z,1010.76
2018-06-19T01:40:04.382Z,1010.76
2018-06-19T01:40:44.935Z,1010.76
2018-06-19T01:41:25.462Z,1010.75
2018-06-19T01:42:05.975Z,1010.72
2018-06-19T01:44:34.475Z,1010.76
2018-06-19T01:45:14.995Z,1010.76
2018-06-19T01:45:55.512Z,1010.73
2018-06-19T01:46:36.065Z,1010.73
2018-06-19T01:47:16.574Z,1010.73
2018-06-19T01:47:57.098Z,1010.76
2018-06-19T01:48:37.611Z,1010.76
2018-06-19T01:49:18.126Z,1010.81
2018-06-19T01:49:58.645Z,1010.82
2018-06-19T01:50:39.164Z,1010.83
2018-06-19T01:51:19.677Z,1010.78
2018-06-19T01:52:00.200Z,1010.79
2018-06-19T01:52:40.709Z,1010.81
2018-06-19T01:53:21.232Z,1010.8
2018-06-19T01:54:01.755Z,1010.78
2018-06-19T01:54:42.271Z,1010.81
2018-06-19T01:55:22.798Z,1010.78
2018-06-19T01:56:03.307Z,1010.78
2018-06-19T01:56:43.852Z,1010.78
2018-06-19T01:57:24.371Z,1010.78
2018-06-19T01:58:04.907Z,1010.8
2018-06-19T01:58:45.435Z,1010.81
2018-06-19T01:59:25.964Z,1010.8
2018-06-19T02:00:06.494Z,1010.8
2018-06-19T02:00:47.015Z,1010.78
2018-06-19T02:01:27.545Z,1010.81
2018-06-19T02:02:08.089Z,1010.81
2018-06-19T02:02:48.604Z,1010.85
2018-06-19T02:03:29.131Z,1010.85
2018-06-19T02:04:09.654Z,1010.82
2018-06-19T02:04:50.170Z,1010.84
2018-06-19T02:05:30.695Z,1010.87
2018-06-19T02:06:11.217Z,1010.87
2018-06-19T02:06:51.753Z,1010.89
2018-06-19T02:07:32.282Z,1010.88
2018-06-19T02:08:12.812Z,1010.87
2018-06-19T02:08:53.343Z,1010.88
2018-06-19T02:09:33.901Z,1010.86
2018-06-19T02:10:14.494Z,1010.88
2018-06-19T02:10:55.015Z,1010.86
2018-06-19T02:11:35.551Z,1010.87
2018-06-19T02:12:16.064Z,1010.86
2018-06-19T02:12:56.572Z,1010.86
2018-06-19T02:13:37.100Z,1010.88
2018-06-19T02:14:17.623Z,1010.9
2018-06-19T02:14:58.144Z,1010.92
2018-06-19T02:15:38.666Z,1010.9
2018-06-19T02:16:19.193Z,1010.9
2018-06-19T02:16:59.716Z,1010.9
2018-06-19T02:17:40.223Z,1010.94
2018-06-19T02:18:20.750Z,1010.91
2018-06-19T02:19:01.269Z,1010.89
2018-06-19T02:19:41.789Z,1010.92
2018-06-19T02:20:22.328Z,1010.86
2018-06-19T02:21:02.854Z,1010.9
2018-06-19T02:21:43.384Z,1010.86
2018-06-19T02:22:23.912Z,1010.89
2018-06-19T02:23:04.459Z,1010.84
2018-06-19T02:23:44.980Z,1010.87
2018-06-19T02:24:25.500Z,1010.89
2018-06-19T02:25:06.017Z,1010.83
2018-06-19T02:25:46.545Z,1010.8
2018-06-19T02:26:27.074Z,1010.84
2018-06-19T02:27:07.582Z,1010.86
2018-06-19T02:27:48.095Z,1010.87
2018-06-19T02:28:28.624Z,1010.84
2018-06-19T02:29:09.139Z,1010.85
2018-06-19T02:29:49.655Z,1010.87
2018-06-19T02:30:30.174Z,1010.91
2018-06-19T02:31:10.693Z,1010.91
2018-06-19T02:31:51.219Z,1010.96
2018-06-19T02:32:31.745Z,1010.98
2018-06-19T02:33:12.258Z,1010.99
2018-06-19T02:33:52.792Z,1010.97
2018-06-19T02:34:33.303Z,1010.96
2018-06-19T02:35:13.825Z,1010.93
2018-06-19T02:35:54.358Z,1010.93
2018-06-19T02:36:34.884Z,1010.93
2018-06-19T02:37:15.405Z,1010.95
2018-06-19T02:37:55.928Z,1010.93
2018-06-19T02:38:36.449Z,1010.9
2018-06-19T02:39:16.964Z,1010.94
2018-06-19T02:39:57.483Z,1010.91
2018-06-19T02:40:38.005Z,1010.86
2018-06-19T02:41:18.549Z,1010.88
2018-06-19T02:41:59.054Z,1010.89
2018-06-19T02:42:39.575Z,1010.87
2018-06-19T02:43:20.101Z,1010.92
2018-06-19T02:44:00.610Z,1010.87
2018-06-19T02:44:41.137Z,1010.91
2018-06-19T02:45:21.648Z,1010.92
2018-06-19T02:46:02.164Z,1010.95
2018-06-19T02:46:42.689Z,1010.89
2018-06-19T02:47:23.214Z,1010.94
2018-06-19T02:48:03.733Z,1010.91
2018-06-19T02:48:44.267Z,1010.91
2018-06-19T02:49:24.781Z,1010.92
2018-06-19T02:50:05.298Z,1010.91
2018-06-19T02:50:45.819Z,1010.9
2018-06-19T02:51:26.338Z,1010.92
2018-06-19T02:52:06.855Z,1010.91
2018-06-19T02:52:47.384Z,1010.91
2018-06-19T02:53:27.900Z,1010.9
2018-06-19T02:54:08.429Z,1010.93
2018-06-19T02:54:48.946Z,1010.93
2018-06-19T02:55:29.471Z,1010.92
2018-06-19T02:56:10.043Z,1010.96
2018-06-19T02:56:50.553Z,1010.92
2018-06-19T02:57:31.070Z,1010.97
2018-06-19T02:58:11.592Z,1010.98
2018-06-19T02:58:52.113Z,1010.94
2018-06-19T02:59:32.639Z,1010.96
2018-06-19T03:00:13.166Z,1010.89
2018-06-19T03:00:53.702Z,1010.95
2018-06-19T03:01:34.211Z,1010.93
2018-06-19T03:02:14.741Z,1010.97
2018-06-19T03:02:55.266Z,1010.96
2018-06-19T03:03:35.785Z,1010.95
2018-06-19T03:04:16.304Z,1010.98
2018-06-19T03:04:56.822Z,1010.97
2018-06-19T03:05:37.342Z,1010.94
2018-06-19T03:06:17.853Z,1010.92
2018-06-19T03:06:58.400Z,1010.94
2018-06-19T03:07:38.917Z,1010.96
2018-06-19T03:08:19.444Z,1010.96
2018-06-19T03:08:59.971Z,1010.94
2018-06-19T03:09:40.495Z,1010.96
2018-06-19T03:10:21.053Z,1010.97
2018-06-19T03:11:01.573Z,1010.97
2018-06-19T03:11:42.086Z,1010.97
2018-06-19T03:12:22.606Z,1010.96
2018-06-19T03:13:03.141Z,1011.02
2018-06-19T03:13:43.680Z,1010.98
2018-06-19T03:14:24.213Z,1010.95
2018-06-19T03:15:04.721Z,1010.99
2018-06-19T03:15:45.274Z,1010.98
2018-06-19T03:16:25.790Z,1010.92
2018-06-19T03:17:06.305Z,1010.93
2018-06-19T03:17:46.823Z,1010.96
2018-06-19T03:20:04.806Z,1010.98
2018-06-19T03:20:45.337Z,1010.98
2018-06-19T03:21:25.835Z,1011.01
2018-06-19T03:22:06.358Z,1010.99
2018-06-19T03:22:46.882Z,1011.01
2018-06-19T03:23:27.396Z,1010.95
2018-06-19T03:24:07.914Z,1010.94
2018-06-19T03:24:48.439Z,1010.96
2018-06-19T03:25:28.966Z,1010.95
2018-06-19T03:26:09.488Z,1011
2018-06-19T03:26:50.015Z,1010.94
2018-06-19T03:27:30.527Z,1010.94
2018-06-19T03:28:11.050Z,1011.02
2018-06-19T03:28:51.586Z,1011.01
2018-06-19T03:29:32.106Z,1011.04
2018-06-19T03:30:12.625Z,1011
2018-06-19T03:30:53.137Z,1011.01
2018-06-19T03:31:33.656Z,1011.01
2018-06-19T03:32:14.176Z,1011.03
2018-06-19T03:32:55.257Z,1011.07
2018-06-19T03:33:35.245Z,1011.07
2018-06-19T03:34:15.785Z,1011.04
2018-06-19T03:34:56.317Z,1011.03
2018-06-19T03:35:36.845Z,1011.05
2018-06-19T03:36:17.362Z,1011.04
2018-06-19T03:36:58.143Z,1011.07
2018-06-19T03:37:38.433Z,1011.08
2018-06-19T03:38:18.934Z,1011.08
2018-06-19T03:38:59.466Z,1011.05
2018-06-19T03:39:39.990Z,1011.08
2018-06-19T03:40:20.515Z,1011.11
2018-06-19T03:41:01.025Z,1011.1
2018-06-19T03:41:41.543Z,1011.1
2018-06-19T03:42:22.079Z,1011.15
2018-06-19T03:43:02.601Z,1011.13
2018-06-19T03:43:43.113Z,1011.12
2018-06-19T03:44:23.637Z,1011.13
2018-06-19T03:45:04.147Z,1011.15
2018-06-19T03:45:44.672Z,1011.17
2018-06-19T03:46:25.209Z,1011.21
2018-06-19T03:47:05.728Z,1011.24
2018-06-19T03:47:46.240Z,1011.27
2018-06-19T03:48:26.764Z,1011.25
2018-06-19T03:49:07.283Z,1011.25
2018-06-19T03:49:47.803Z,1011.21
2018-06-19T03:50:28.318Z,1011.23
2018-06-19T03:51:08.827Z,1011.17
2018-06-19T03:51:49.347Z,1011.21
2018-06-19T03:52:29.903Z,1011.24
2018-06-19T03:53:10.420Z,1011.23
2018-06-19T03:53:50.940Z,1011.27
2018-06-19T03:54:31.469Z,1011.28
2018-06-19T03:55:11.988Z,1011.31
2018-06-19T03:55:52.497Z,1011.32
2018-06-19T03:56:33.029Z,1011.3
2018-06-19T03:57:13.544Z,1011.29
2018-06-19T03:57:54.078Z,1011.29
2018-06-19T03:58:34.596Z,1011.32
2018-06-19T03:59:15.106Z,1011.31
2018-06-19T03:59:55.628Z,1011.32
2018-06-19T04:00:36.140Z,1011.36
2018-06-19T04:01:16.673Z,1011.35
2018-06-19T04:01:57.194Z,1011.34
2018-06-19T04:02:37.750Z,1011.32
2018-06-19T04:03:18.269Z,1011.3
2018-06-19T04:03:58.791Z,1011.36
2018-06-19T04:04:39.304Z,1011.34
2018-06-19T04:05:19.811Z,1011.38
2018-06-19T04:06:00.338Z,1011.36
2018-06-19T04:06:40.862Z,1011.34
2018-06-19T04:07:21.390Z,1011.35
2018-06-19T04:08:01.938Z,1011.38
2018-06-19T04:08:42.455Z,1011.36
2018-06-19T04:09:22.992Z,1011.38
2018-06-19T04:10:03.504Z,1011.37
2018-06-19T04:10:44.030Z,1011.37
2018-06-19T04:11:24.542Z,1011.36
2018-06-19T04:12:05.064Z,1011.35
2018-06-19T04:12:45.590Z,1011.32
2018-06-19T04:13:26.106Z,1011.35
2018-06-19T04:14:06.623Z,1011.34
2018-06-19T04:14:47.139Z,1011.3
2018-06-19T04:15:27.648Z,1011.35
2018-06-19T04:16:08.172Z,1011.32
2018-06-19T04:16:48.691Z,1011.32
2018-06-19T04:17:29.206Z,1011.32
2018-06-19T04:18:09.725Z,1011.33
2018-06-19T04:18:50.239Z,1011.33
2018-06-19T04:19:30.744Z,1011.29
2018-06-19T04:20:11.259Z,1011.36
2018-06-19T04:20:51.782Z,1011.35
2018-06-19T04:21:32.307Z,1011.34
2018-06-19T04:22:12.850Z,1011.39
2018-06-19T04:22:53.359Z,1011.35
2018-06-19T04:23:33.889Z,1011.36
2018-06-19T04:24:14.413Z,1011.36
2018-06-19T04:24:54.944Z,1011.36
2018-06-19T04:25:35.464Z,1011.34
2018-06-19T04:26:15.985Z,1011.33
2018-06-19T04:26:56.511Z,1011.33
2018-06-19T04:27:37.072Z,1011.27
2018-06-19T04:28:17.597Z,1011.26
2018-06-19T04:28:58.115Z,1011.29
2018-06-19T04:29:38.639Z,1011.32
2018-06-19T04:30:19.155Z,1011.34
2018-06-19T04:30:59.680Z,1011.32
2018-06-19T04:31:40.193Z,1011.33
2018-06-19T04:32:20.714Z,1011.34
2018-06-19T04:33:01.244Z,1011.26
2018-06-19T04:33:41.778Z,1011.28
2018-06-19T04:34:22.294Z,1011.23
2018-06-19T04:35:02.817Z,1011.26
2018-06-19T04:35:43.328Z,1011.32
2018-06-19T04:36:23.849Z,1011.3
2018-06-19T04:37:04.371Z,1011.28
2018-06-19T04:37:44.893Z,1011.28
2018-06-19T04:38:25.405Z,1011.35
2018-06-19T04:39:05.930Z,1011.35
2018-06-19T04:39:46.449Z,1011.39
2018-06-19T04:40:26.969Z,1011.37
2018-06-19T04:41:07.503Z,1011.39
2018-06-19T04:41:48.031Z,1011.39
2018-06-19T04:42:28.559Z,1011.36
2018-06-19T04:43:09.074Z,1011.35
2018-06-19T04:43:49.606Z,1011.34
2018-06-19T04:44:30.137Z,1011.32
2018-06-19T04:45:10.661Z,1011.36
2018-06-19T04:45:51.201Z,1011.37
2018-06-19T04:46:31.716Z,1011.36
2018-06-19T04:47:12.266Z,1011.38
2018-06-19T04:47:53.293Z,1011.32
2018-06-19T04:48:33.331Z,1011.34
2018-06-19T04:49:13.849Z,1011.35
2018-06-19T04:49:54.371Z,1011.35
2018-06-19T04:50:34.890Z,1011.34
2018-06-19T04:51:15.421Z,1011.39
2018-06-19T04:51:55.938Z,1011.38
2018-06-19T04:52:36.457Z,1011.42
2018-06-19T04:53:16.987Z,1011.42
2018-06-19T04:53:57.505Z,1011.4
2018-06-19T04:54:38.171Z,1011.4
2018-06-19T04:55:18.579Z,1011.42
2018-06-19T04:55:59.174Z,1011.42
2018-06-19T04:56:39.717Z,1011.38
2018-06-19T04:57:20.238Z,1011.35
2018-06-19T04:58:00.757Z,1011.35
2018-06-19T04:58:41.290Z,1011.4
2018-06-19T04:59:21.804Z,1011.4
2018-06-19T05:00:02.338Z,1011.33
2018-06-19T05:00:42.864Z,1011.37
2018-06-19T05:01:23.378Z,1011.32
2018-06-19T05:02:03.908Z,1011.41
2018-06-19T05:02:44.426Z,1011.37
2018-06-19T05:03:24.952Z,1011.39
2018-06-19T05:04:05.465Z,1011.4
2018-06-19T05:04:45.982Z,1011.4
2018-06-19T05:05:26.502Z,1011.4
2018-06-19T05:06:07.023Z,1011.38
2018-06-19T05:06:47.714Z,1011.41
2018-06-19T05:07:28.169Z,1011.37
2018-06-19T05:08:08.686Z,1011.38
2018-06-19T05:08:49.198Z,1011.4
2018-06-19T05:09:29.720Z,1011.38
2018-06-19T05:10:10.253Z,1011.41
2018-06-19T05:10:50.781Z,1011.39
2018-06-19T05:11:31.807Z,1011.37
2018-06-19T05:12:11.840Z,1011.37
2018-06-19T05:12:52.462Z,1011.41
2018-06-19T05:13:32.900Z,1011.41
2018-06-19T05:14:13.449Z,1011.42
2018-06-19T05:14:53.977Z,1011.37
2018-06-19T05:15:34.506Z,1011.4
2018-06-19T05:16:15.034Z,1011.4
2018-06-19T05:16:55.571Z,1011.47
2018-06-19T05:17:36.088Z,1011.41
2018-06-19T05:18:16.616Z,1011.42
2018-06-19T05:18:57.129Z,1011.39
2018-06-19T05:19:37.681Z,1011.37
2018-06-19T05:20:18.301Z,1011.4
2018-06-19T05:20:58.743Z,1011.34
2018-06-19T05:21:39.270Z,1011.39
2018-06-19T05:23:36.932Z,1011.44
2018-06-19T05:24:17.452Z,1011.38
2018-06-19T05:24:57.980Z,1011.4
2018-06-19T05:25:38.502Z,1011.4
2018-06-19T05:26:19.006Z,1011.4
2018-06-19T05:26:59.531Z,1011.5
2018-06-19T05:27:40.045Z,1011.47
2018-06-19T05:28:20.571Z,1011.43
2018-06-19T05:29:01.087Z,1011.5
2018-06-19T05:29:41.606Z,1011.45
2018-06-19T05:30:22.172Z,1011.48
2018-06-19T05:31:02.656Z,1011.44
2018-06-19T05:31:43.183Z,1011.48
2018-06-19T05:32:23.701Z,1011.47
2018-06-19T05:33:04.231Z,1011.46
2018-06-19T05:33:44.757Z,1011.46
2018-06-19T05:34:25.292Z,1011.46
2018-06-19T05:35:05.841Z,1011.49
2018-06-19T05:35:46.362Z,1011.53
2018-06-19T05:36:26.881Z,1011.52
2018-06-19T05:37:07.389Z,1011.5
2018-06-19T05:37:47.926Z,1011.53
2018-06-19T05:38:28.438Z,1011.57
2018-06-19T05:39:09.036Z,1011.56
2018-06-19T05:39:49.560Z,1011.56
2018-06-19T05:40:30.099Z,1011.58
2018-06-19T05:41:10.614Z,1011.48
2018-06-19T05:41:51.143Z,1011.53
2018-06-19T05:42:31.675Z,1011.5
2018-06-19T05:43:12.179Z,1011.52
2018-06-19T05:43:52.695Z,1011.48
2018-06-19T05:44:33.214Z,1011.52
2018-06-19T05:45:13.737Z,1011.52
2018-06-19T05:45:54.262Z,1011.56
2018-06-19T05:46:34.795Z,1011.52
2018-06-19T05:47:15.307Z,1011.6
2018-06-19T05:47:55.856Z,1011.64
2018-06-19T05:48:36.362Z,1011.62
2018-06-19T05:49:16.890Z,1011.65
2018-06-19T05:49:57.415Z,1011.61
2018-06-19T05:50:37.924Z,1011.62
2018-06-19T05:51:18.442Z,1011.67
2018-06-19T05:51:58.960Z,1011.62
2018-06-19T05:52:39.511Z,1011.64
2018-06-19T05:53:20.025Z,1011.6
2018-06-19T05:54:00.573Z,1011.65
2018-06-19T05:54:41.117Z,1011.61
2018-06-19T05:55:21.632Z,1011.62
2018-06-19T05:56:02.162Z,1011.67
2018-06-19T05:56:42.682Z,1011.65
2018-06-19T05:57:23.241Z,1011.66
2018-06-19T05:58:03.759Z,1011.69
2018-06-19T05:58:44.385Z,1011.71
2018-06-19T05:59:24.989Z,1011.73
2018-06-19T06:00:05.600Z,1011.68
2018-06-19T06:00:46.073Z,1011.73
2018-06-19T06:01:26.590Z,1011.68
2018-06-19T06:02:07.126Z,1011.72
2018-06-19T06:02:47.650Z,1011.73
2018-06-19T06:03:28.246Z,1011.78
2018-06-19T06:04:08.741Z,1011.78
2018-06-19T06:04:49.283Z,1011.77
2018-06-19T06:05:29.812Z,1011.82
2018-06-19T06:06:10.312Z,1011.86
2018-06-19T06:06:50.850Z,1011.89
2018-06-19T06:07:31.383Z,1011.92
2018-06-19T06:08:11.958Z,1011.91
2018-06-19T06:08:52.473Z,1011.9
2018-06-19T06:09:32.995Z,1011.91
2018-06-19T06:10:13.519Z,1011.95
2018-06-19T06:10:54.311Z,1012
2018-06-19T06:11:34.785Z,1012.02
2018-06-19T06:12:15.323Z,1011.97
2018-06-19T06:12:55.853Z,1012.01
2018-06-19T06:13:36.374Z,1011.95
2018-06-19T06:14:16.896Z,1011.95
2018-06-19T06:14:57.424Z,1012.01
2018-06-19T06:15:37.977Z,1012
2018-06-19T06:16:18.481Z,1011.99
2018-06-19T06:16:59.032Z,1012
2018-06-19T06:17:39.561Z,1011.99
2018-06-19T06:18:20.083Z,1011.96
2018-06-19T06:19:00.760Z,1011.95
2018-06-19T06:19:41.277Z,1011.95
2018-06-19T06:20:21.811Z,1011.98
2018-06-19T06:21:02.325Z,1011.96
2018-06-19T06:21:42.840Z,1011.96
2018-06-19T06:22:23.353Z,1011.94
2018-06-19T06:23:03.885Z,1011.89
2018-06-19T06:23:44.419Z,1011.96
2018-06-19T06:24:24.943Z,1011.93
2018-06-19T06:25:05.480Z,1011.95
2018-06-19T06:25:46.000Z,1011.98
2018-06-19T06:26:26.520Z,1012
2018-06-19T06:27:07.118Z,1011.99
2018-06-19T06:27:47.639Z,1012.04
2018-06-19T06:28:28.194Z,1011.98
2018-06-19T06:29:08.709Z,1011.99
2018-06-19T06:29:49.229Z,1012.03
2018-06-19T06:30:29.751Z,1012.05
2018-06-19T06:31:10.273Z,1012.06
2018-06-19T06:31:50.800Z,1012.06
2018-06-19T06:32:31.342Z,1012.01
2018-06-19T06:33:11.874Z,1012.02
2018-06-19T06:33:52.389Z,1012.04
2018-06-19T06:34:32.936Z,1012
2018-06-19T06:35:13.473Z,1012.01
2018-06-19T06:35:54.013Z,1012.01
2018-06-19T06:36:34.553Z,1012.06
2018-06-19T06:37:15.120Z,1012.02
2018-06-19T06:37:55.636Z,1012.03
2018-06-19T06:38:36.148Z,1012.07
2018-06-19T06:39:16.675Z,1012.07
2018-06-19T06:39:57.251Z,1012.05
2018-06-19T06:40:37.786Z,1012.08
2018-06-19T06:41:18.323Z,1012.07
2018-06-19T06:41:58.861Z,1012.06
2018-06-19T06:42:39.450Z,1012.11
2018-06-19T06:43:19.972Z,1012.13
2018-06-19T06:44:00.489Z,1012.12
2018-06-19T06:44:41.013Z,1012.12
2018-06-19T06:45:21.539Z,1012.12
2018-06-19T06:46:02.102Z,1012.11
2018-06-19T06:46:42.610Z,1012.11
2018-06-19T06:47:23.165Z,1012.16
2018-06-19T06:48:03.691Z,1012.13
2018-06-19T06:48:44.211Z,1012.11
2018-06-19T06:49:24.737Z,1012.07
2018-06-19T06:50:05.317Z,1012.07
2018-06-19T06:50:45.849Z,1012.06
2018-06-19T06:51:26.403Z,1012.07
2018-06-19T06:52:06.960Z,1012.01
2018-06-19T06:52:47.494Z,1012.05
2018-06-19T06:53:28.005Z,1012.06
2018-06-19T06:54:08.540Z,1012.02
2018-06-19T06:54:49.066Z,1012.02
2018-06-19T06:55:29.592Z,1012.06
2018-06-19T06:56:10.114Z,1012.03
2018-06-19T06:56:50.764Z,1012.05
2018-06-19T06:57:31.296Z,1012.06
2018-06-19T06:58:11.860Z,1012.05
2018-06-19T06:58:52.389Z,1012.03
2018-06-19T06:59:32.951Z,1012.03
2018-06-19T07:00:13.482Z,1012.05
2018-06-19T07:00:54.016Z,1012.08
2018-06-19T07:01:34.545Z,1012.06
2018-06-19T07:02:15.072Z,1012.08
2018-06-19T07:02:55.604Z,1012.12
2018-06-19T07:03:36.151Z,1012.01
2018-06-19T07:04:16.892Z,1012.1
2018-06-19T07:04:57.519Z,1012.06
2018-06-19T07:05:38.057Z,1012.08
2018-06-19T07:06:18.572Z,1012.08
2018-06-19T07:06:59.095Z,1012.1
2018-06-19T07:07:39.636Z,1012.09
2018-06-19T07:08:20.146Z,1012.09
2018-06-19T07:09:00.675Z,1012.08
2018-06-19T07:09:41.313Z,1012.02
2018-06-19T07:10:21.839Z,1012.01
2018-06-19T07:11:02.394Z,1012.02
2018-06-19T07:11:42.937Z,1012.05
2018-06-19T07:12:23.458Z,1012.08
2018-06-19T07:13:03.974Z,1012.06
2018-06-19T07:13:44.502Z,1012.09
2018-06-19T07:14:25.015Z,1012.09
2018-06-19T07:15:05.558Z,1012.03
2018-06-19T07:15:46.210Z,1012.03
2018-06-19T07:16:26.770Z,1012.01
2018-06-19T07:17:07.297Z,1012.07
2018-06-19T07:17:47.842Z,1012.06
2018-06-19T07:18:28.382Z,1012.08
2018-06-19T07:19:08.985Z,1012.13
2018-06-19T07:19:49.439Z,1012.08
2018-06-19T07:20:29.994Z,1012.1
2018-06-19T07:21:10.563Z,1012.07
2018-06-19T07:21:51.121Z,1012
2018-06-19T07:22:31.714Z,1012.06
2018-06-19T07:23:12.196Z,1012.03
2018-06-19T07:23:52.702Z,1012.05
2018-06-19T07:24:33.231Z,1012.04
2018-06-19T07:25:13.761Z,1012.07
2018-06-19T07:25:54.336Z,1012.03
2018-06-19T07:26:34.811Z,1012.06
2018-06-19T07:27:15.340Z,1012.01
2018-06-19T07:27:55.879Z,1012.03
2018-06-19T07:28:36.393Z,1012.06
2018-06-19T07:29:16.923Z,1012.04
2018-06-19T07:29:57.455Z,1012.05
2018-06-19T07:30:37.971Z,1012.04
2018-06-19T07:31:18.484Z,1012.05
2018-06-19T07:31:59.052Z,1012.11
2018-06-19T07:32:39.552Z,1012.05
2018-06-19T07:33:20.054Z,1012.04
2018-06-19T07:34:00.571Z,1012.05
2018-06-19T07:34:41.119Z,1012.1
2018-06-19T07:35:21.664Z,1012.1
2018-06-19T07:36:02.210Z,1012.09
2018-06-19T07:36:42.807Z,1012.06
2018-06-19T07:37:23.265Z,1012.07
2018-06-19T07:38:03.794Z,1012.03
2018-06-19T07:38:44.307Z,1012.01
2018-06-19T07:39:24.836Z,1012.06
2018-06-19T07:40:05.391Z,1012.07
2018-06-19T07:40:45.910Z,1012.04
2018-06-19T07:41:26.456Z,1012.05
2018-06-19T07:42:06.992Z,1012.07
2018-06-19T07:42:47.548Z,1012.02
2018-06-19T07:43:28.066Z,1012.06
2018-06-19T07:44:08.591Z,1012
2018-06-19T07:44:49.104Z,1012.01
2018-06-19T07:45:29.652Z,1012.01
2018-06-19T07:46:10.195Z,1012.05
2018-06-19T07:46:50.727Z,1012.1
2018-06-19T07:47:31.253Z,1012.05
2018-06-19T07:48:11.905Z,1012.07
2018-06-19T07:48:52.346Z,1012.06
2018-06-19T07:49:32.926Z,1012.03
2018-06-19T07:50:13.480Z,1011.99
2018-06-19T07:50:54.008Z,1012.05
2018-06-19T07:51:34.526Z,1012.04
2018-06-19T07:52:15.046Z,1011.99
2018-06-19T07:52:55.559Z,1011.96
2018-06-19T07:53:36.095Z,1011.95
2018-06-19T07:54:16.623Z,1011.99
2018-06-19T07:54:57.129Z,1011.95
2018-06-19T07:55:37.748Z,1011.93
2018-06-19T07:56:18.194Z,1012.01
2018-06-19T07:56:58.716Z,1011.97
2018-06-19T07:57:39.255Z,1012.01
2018-06-19T07:58:19.822Z,1012.01
2018-06-19T07:59:00.332Z,1012.06
2018-06-19T07:59:40.853Z,1012.06
2018-06-19T08:00:21.371Z,1011.99
2018-06-19T08:01:01.898Z,1012.01
2018-06-19T08:01:42.429Z,1011.96
2018-06-19T08:02:22.979Z,1011.97
2018-06-19T08:03:03.521Z,1011.9
2018-06-19T08:03:44.037Z,1011.89
2018-06-19T08:04:24.634Z,1011.92
2018-06-19T08:05:05.152Z,1011.97
2018-06-19T08:05:45.673Z,1011.94
2018-06-19T08:06:26.247Z,1011.91
2018-06-19T08:07:06.795Z,1011.87
2018-06-19T08:07:48.213Z,1011.86
2018-06-19T08:08:28.719Z,1011.9
2018-06-19T08:09:09.240Z,1011.94
2018-06-19T08:09:49.753Z,1011.87
2018-06-19T08:10:30.283Z,1011.94
2018-06-19T08:11:10.811Z,1011.94
2018-06-19T08:11:51.328Z,1011.89
2018-06-19T08:12:31.874Z,1011.91
2018-06-19T08:13:12.393Z,1011.9
2018-06-19T08:13:52.923Z,1011.87
2018-06-19T08:14:33.476Z,1011.9
2018-06-19T08:15:14.002Z,1011.88
2018-06-19T08:15:54.521Z,1011.88
2018-06-19T08:16:35.039Z,1011.83